NGTA/TRW METAR and TAF weather

Enter ICAO airport designator
Station Type Date Time Source
NGTA METAR 2019/09/20 20:00 UTC NOAA

NGTA 202000Z 13004KT 9999 FEW019 30/23 Q1011


Station Type Date Time Source
NGTA Decoded METAR 2019/09/20 20:00 UTC NOAA

Tarawa, Kiribati (NGTA) 01-21N 172-55E 4M
Sep 20, 2019 - 04:00 PM EDT / 2019.09.20 2000 UTC
Wind: from the SE (130 degrees) at 5 MPH (4 KT):0
Visibility: greater than 7 mile(s):0
Sky conditions: mostly clear
Temperature: 86 F (30 C)
Heat index: 93.4 F (34.1 C):1
Dew Point: 73 F (23 C)
Relative Humidity: 66%
Pressure (altimeter): 29.85 in. Hg (1011 hPa)
ob: NGTA 202000Z 13004KT 9999 FEW019 30/23 Q1011
cycle: 20

Station Type Date Time Source
NGTA TAF 2019/09/20 18:05 UTC NOAA

TAF NGTA 201702Z 2018/2118 14005KT 9999 FEW020

Example: see airport list